createdAt,value
2018-04-27T16:01:18.312Z,930.68
2018-04-27T16:01:31.380Z,930.7
2018-04-27T16:01:44.407Z,930.71
2018-04-27T16:01:56.456Z,930.71
2018-04-27T16:02:09.446Z,930.66
2018-04-27T16:02:22.020Z,930.67
2018-04-27T16:02:35.033Z,930.68
2018-04-27T16:02:48.027Z,930.65
2018-04-27T16:03:01.013Z,930.64
2018-04-27T16:03:13.543Z,930.68
2018-04-27T16:03:26.118Z,930.66
2018-04-27T16:03:38.666Z,930.67
2018-04-27T16:03:51.715Z,930.68
2018-04-27T16:04:04.255Z,930.66
2018-04-27T16:04:17.281Z,930.64
2018-04-27T16:04:30.342Z,930.63
2018-04-27T16:04:43.368Z,930.67
2018-04-27T16:04:56.022Z,930.65
2018-04-27T16:05:08.101Z,930.63
2018-04-27T16:05:21.157Z,930.64
2018-04-27T16:05:34.207Z,930.64
2018-04-27T16:05:46.791Z,930.64
2018-04-27T16:05:58.879Z,930.61
2018-04-27T16:06:11.442Z,930.63
2018-04-27T16:06:24.494Z,930.62
2018-04-27T16:06:42.904Z,930.63
2018-04-27T16:06:55.949Z,930.65
2018-04-27T16:07:08.986Z,930.6
2018-04-27T16:07:21.116Z,930.62
2018-04-27T16:07:34.114Z,930.59
2018-04-27T16:07:47.160Z,930.6
2018-04-27T16:07:59.709Z,930.57
2018-04-27T16:08:12.239Z,930.57
2018-04-27T16:08:25.235Z,930.57
2018-04-27T16:08:38.239Z,930.58
2018-04-27T16:08:51.291Z,930.55
2018-04-27T16:09:03.372Z,930.56
2018-04-27T16:09:16.341Z,930.53
2018-04-27T16:09:28.585Z,930.54
2018-04-27T16:09:41.831Z,930.53
2018-04-27T16:09:54.419Z,930.56
2018-04-27T16:10:06.509Z,930.56
2018-04-27T16:10:18.612Z,930.55
2018-04-27T16:10:31.236Z,930.53
2018-04-27T16:10:44.285Z,930.55
2018-04-27T16:10:57.344Z,930.52
2018-04-27T16:11:10.398Z,930.56
2018-04-27T16:11:23.407Z,930.53
2018-04-27T16:11:35.522Z,930.54
2018-04-27T16:11:48.556Z,930.53
2018-04-27T16:12:01.164Z,930.55
2018-04-27T16:12:14.210Z,930.54
2018-04-27T16:12:26.742Z,930.53
2018-04-27T16:12:39.742Z,930.54
2018-04-27T16:12:52.765Z,930.52
2018-04-27T16:13:04.344Z,930.51
2018-04-27T16:13:17.352Z,930.54
2018-04-27T16:13:29.406Z,930.54
2018-04-27T16:13:42.414Z,930.52
2018-04-27T16:13:55.018Z,930.57
2018-04-27T16:14:07.615Z,930.53
2018-04-27T16:14:20.650Z,930.54
2018-04-27T16:14:33.697Z,930.56
2018-04-27T16:14:46.252Z,930.52
2018-04-27T16:14:58.986Z,930.54
2018-04-27T16:15:11.476Z,930.54
2018-04-27T16:15:23.542Z,930.52
2018-04-27T16:15:36.572Z,930.52
2018-04-27T16:15:49.627Z,930.55
2018-04-27T16:16:01.737Z,930.52
2018-04-27T16:16:14.317Z,930.53
2018-04-27T16:16:26.499Z,930.56
2018-04-27T16:16:39.034Z,930.53
2018-04-27T16:16:52.086Z,930.54
2018-04-27T16:17:04.607Z,930.52
2018-04-27T16:17:17.192Z,930.52
2018-04-27T16:17:30.204Z,930.55
2018-04-27T16:17:43.255Z,930.51
2018-04-27T16:17:56.287Z,930.55
2018-04-27T16:18:08.420Z,930.53
2018-04-27T16:18:20.993Z,930.53
2018-04-27T16:18:33.561Z,930.53
2018-04-27T16:18:46.581Z,930.52
2018-04-27T16:18:59.215Z,930.53
2018-04-27T16:19:11.313Z,930.54
2018-04-27T16:19:24.343Z,930.53
2018-04-27T16:19:36.922Z,930.48
2018-04-27T16:19:49.955Z,930.52
2018-04-27T16:20:02.990Z,930.51
2018-04-27T16:20:15.079Z,930.46
2018-04-27T16:20:27.648Z,930.51
2018-04-27T16:20:40.165Z,930.48
2018-04-27T16:20:53.202Z,930.47
2018-04-27T16:21:06.230Z,930.46
2018-04-27T16:21:18.959Z,930.48
2018-04-27T16:21:30.681Z,930.45
2018-04-27T16:21:43.730Z,930.48
2018-04-27T16:21:56.288Z,930.48
2018-04-27T16:22:09.347Z,930.49
2018-04-27T16:22:21.874Z,930.46
2018-04-27T16:22:34.933Z,930.47
2018-04-27T16:22:47.935Z,930.46
2018-04-27T16:23:00.522Z,930.43
2018-04-27T16:23:13.559Z,930.45
2018-04-27T16:23:25.631Z,930.43
2018-04-27T16:23:38.201Z,930.44
2018-04-27T16:23:51.208Z,930.43
2018-04-27T16:24:04.220Z,930.42
2018-04-27T16:24:16.810Z,930.45
2018-04-27T16:24:29.377Z,930.44
2018-04-27T16:24:42.361Z,930.42
2018-04-27T16:24:54.898Z,930.39
2018-04-27T16:25:07.931Z,930.36
2018-04-27T16:25:20.045Z,930.42
2018-04-27T16:25:33.079Z,930.42
2018-04-27T16:25:46.118Z,930.4
2018-04-27T16:25:59.174Z,930.39
2018-04-27T16:26:11.767Z,930.45
2018-04-27T16:26:24.378Z,930.43
2018-04-27T16:26:37.031Z,930.39
2018-04-27T16:26:49.115Z,930.4
2018-04-27T16:27:01.661Z,930.44
2018-04-27T16:27:14.236Z,930.41
2018-04-27T16:27:26.807Z,930.4
2018-04-27T16:27:39.381Z,930.42
2018-04-27T16:27:52.391Z,930.4
2018-04-27T16:28:04.577Z,930.4
2018-04-27T16:28:17.717Z,930.42
2018-04-27T16:28:30.282Z,930.44
2018-04-27T16:28:42.839Z,930.4
2018-04-27T16:28:55.865Z,930.39
2018-04-27T16:29:08.430Z,930.38
2018-04-27T16:29:21.485Z,930.44
2018-04-27T16:29:34.514Z,930.41
2018-04-27T16:29:46.579Z,930.41
2018-04-27T16:29:59.166Z,930.41
2018-04-27T16:30:11.368Z,930.37
2018-04-27T16:30:24.086Z,930.39
2018-04-27T16:30:36.606Z,930.36
2018-04-27T16:30:49.590Z,930.38
2018-04-27T16:31:02.175Z,930.36
2018-04-27T16:31:15.210Z,930.34
2018-04-27T16:31:28.195Z,930.37
2018-04-27T16:31:40.707Z,930.3
2018-04-27T16:31:53.286Z,930.36
2018-04-27T16:32:06.337Z,930.34
2018-04-27T16:32:18.878Z,930.32
2018-04-27T16:32:31.893Z,930.33
2018-04-27T16:32:44.935Z,930.34
2018-04-27T16:32:57.476Z,930.35
2018-04-27T16:33:10.056Z,930.31
2018-04-27T16:33:22.651Z,930.31
2018-04-27T16:33:35.203Z,930.32
2018-04-27T16:33:48.229Z,930.31
2018-04-27T16:34:01.260Z,930.3
2018-04-27T16:34:14.280Z,930.3
2018-04-27T16:34:26.889Z,930.3
2018-04-27T16:34:38.987Z,930.32
2018-04-27T16:34:52.012Z,930.27
2018-04-27T16:35:04.602Z,930.28
2018-04-27T16:35:16.662Z,930.26
2018-04-27T16:35:29.239Z,930.26
2018-04-27T16:35:42.402Z,930.27
2018-04-27T16:35:55.288Z,930.29
2018-04-27T16:36:08.319Z,930.34
2018-04-27T16:36:21.386Z,930.29
2018-04-27T16:36:33.420Z,930.3
2018-04-27T16:36:45.932Z,930.3
2018-04-27T16:36:58.511Z,930.3
2018-04-27T16:37:10.610Z,930.34
2018-04-27T16:37:23.640Z,930.31
2018-04-27T16:37:35.265Z,930.28
2018-04-27T16:37:46.868Z,930.27
2018-04-27T16:37:58.970Z,930.32
2018-04-27T16:38:11.080Z,930.28
2018-04-27T16:38:23.150Z,930.29
2018-04-27T16:38:35.717Z,930.27
2018-04-27T16:38:48.760Z,930.27
2018-04-27T16:39:01.794Z,930.27
2018-04-27T16:39:14.326Z,930.28
2018-04-27T16:39:26.889Z,930.27
2018-04-27T16:39:38.545Z,930.26
2018-04-27T16:39:51.576Z,930.31
2018-04-27T16:40:04.165Z,930.25
2018-04-27T16:40:17.147Z,930.25
2018-04-27T16:40:30.129Z,930.23
2018-04-27T16:40:42.196Z,930.29
2018-04-27T16:40:55.243Z,930.23
2018-04-27T16:41:07.800Z,930.25
2018-04-27T16:41:20.856Z,930.23
2018-04-27T16:41:33.417Z,930.24
2018-04-27T16:41:45.639Z,930.23
2018-04-27T16:41:58.144Z,930.24
2018-04-27T16:42:10.808Z,930.21
2018-04-27T16:42:23.844Z,930.21
2018-04-27T16:42:36.377Z,930.2
2018-04-27T16:42:49.409Z,930.23
2018-04-27T16:43:01.518Z,930.25
2018-04-27T16:43:14.541Z,930.23
2018-04-27T16:43:27.137Z,930.18
2018-04-27T16:43:39.662Z,930.22
2018-04-27T16:43:52.232Z,930.21
2018-04-27T16:44:05.263Z,930.18
2018-04-27T16:44:17.335Z,930.19
2018-04-27T16:44:28.967Z,930.19
2018-04-27T16:44:41.528Z,930.19
2018-04-27T16:44:54.115Z,930.19
2018-04-27T16:45:06.681Z,930.15
2018-04-27T16:45:19.243Z,930.23
2018-04-27T16:45:31.792Z,930.19
2018-04-27T16:45:44.343Z,930.19
2018-04-27T16:45:57.396Z,930.14
2018-04-27T16:46:09.479Z,930.19
2018-04-27T16:46:22.477Z,930.15
2018-04-27T16:46:35.576Z,930.17
2018-04-27T16:46:48.636Z,930.17
2018-04-27T16:47:01.739Z,930.14
2018-04-27T16:47:14.318Z,930.17
2018-04-27T16:47:26.874Z,930.17
2018-04-27T16:47:38.922Z,930.15
2018-04-27T16:47:51.011Z,930.11
2018-04-27T16:48:03.297Z,930.14
2018-04-27T16:48:16.320Z,930.13
2018-04-27T16:48:29.367Z,930.14
2018-04-27T16:48:41.468Z,930.15
2018-04-27T16:48:54.012Z,930.1
2018-04-27T16:49:07.028Z,930.14
2018-04-27T16:49:19.591Z,930.11
2018-04-27T16:49:32.630Z,930.09
2018-04-27T16:49:44.719Z,930.09
2018-04-27T16:49:57.237Z,930.11
2018-04-27T16:50:09.326Z,930.12
2018-04-27T16:50:21.880Z,930.13
2018-04-27T16:50:34.440Z,930.14
2018-04-27T16:50:46.979Z,930.09
2018-04-27T16:50:59.524Z,930.11
2018-04-27T16:51:12.593Z,930.11
2018-04-27T16:51:25.157Z,930.12
2018-04-27T16:51:38.302Z,930.12
2018-04-27T16:51:51.330Z,930.13
2018-04-27T16:52:03.843Z,930.09
2018-04-27T16:52:15.936Z,930.11
2018-04-27T16:52:27.546Z,930.07
2018-04-27T16:52:39.676Z,930.11
2018-04-27T16:52:51.777Z,930.06
2018-04-27T16:53:03.391Z,930.08
2018-04-27T16:53:15.940Z,930.05
2018-04-27T16:53:28.517Z,930.05
2018-04-27T16:53:41.562Z,930.03
2018-04-27T16:53:54.140Z,930.02
2018-04-27T16:54:06.722Z,930.03
2018-04-27T16:54:19.323Z,930.03
2018-04-27T16:54:32.501Z,930.01
2018-04-27T16:54:44.702Z,930
2018-04-27T16:54:57.700Z,929.98
2018-04-27T16:55:10.729Z,929.99
2018-04-27T16:55:23.297Z,929.96
2018-04-27T16:55:36.353Z,929.97
2018-04-27T16:55:47.975Z,929.96
2018-04-27T16:56:00.052Z,929.92
2018-04-27T16:56:12.189Z,929.88
2018-04-27T16:56:25.211Z,929.89
2018-04-27T16:56:37.863Z,929.87
2018-04-27T16:56:50.432Z,929.86
2018-04-27T16:57:03.443Z,929.86
2018-04-27T16:57:15.513Z,929.85
2018-04-27T16:57:28.515Z,929.85
2018-04-27T16:57:40.652Z,929.87
2018-04-27T16:57:52.719Z,929.86
2018-04-27T16:58:05.266Z,929.88
2018-04-27T16:58:18.267Z,929.92
2018-04-27T16:58:30.797Z,929.96
2018-04-27T16:58:43.877Z,929.94
2018-04-27T16:58:57.021Z,929.96
2018-04-27T16:59:10.077Z,929.97
2018-04-27T16:59:23.067Z,929.94
2018-04-27T16:59:35.635Z,929.97
2018-04-27T16:59:47.830Z,929.95
2018-04-27T17:00:00.399Z,929.98
2018-04-27T17:00:12.539Z,929.95
2018-04-27T17:00:25.544Z,929.94
2018-04-27T17:00:38.123Z,929.97
2018-04-27T17:00:50.627Z,929.92
2018-04-27T17:01:03.246Z,929.88
2018-04-27T17:01:15.820Z,929.92
2018-04-27T17:01:28.386Z,929.92
2018-04-27T17:01:41.493Z,929.92
2018-04-27T17:01:54.514Z,929.91
2018-04-27T17:02:07.090Z,929.87
2018-04-27T17:02:20.074Z,929.86
2018-04-27T17:02:33.101Z,929.87
2018-04-27T17:02:45.207Z,929.88
2018-04-27T17:02:58.242Z,929.93
2018-04-27T17:03:11.271Z,929.93
2018-04-27T17:03:22.884Z,929.88
2018-04-27T17:03:35.936Z,929.94
2018-04-27T17:03:48.797Z,929.9
2018-04-27T17:04:01.808Z,929.96
2018-04-27T17:04:13.895Z,929.92
2018-04-27T17:04:25.994Z,929.92
2018-04-27T17:04:38.592Z,929.98
2018-04-27T17:04:51.132Z,929.94
2018-04-27T17:05:04.173Z,929.9
2018-04-27T17:05:16.696Z,929.89
2018-04-27T17:05:29.283Z,929.88
2018-04-27T17:05:41.845Z,929.88
2018-04-27T17:05:54.437Z,929.93
2018-04-27T17:06:07.000Z,929.92
2018-04-27T17:06:19.556Z,929.89
2018-04-27T17:06:32.603Z,929.89
2018-04-27T17:06:45.629Z,929.87
2018-04-27T17:06:58.624Z,929.92
2018-04-27T17:07:11.201Z,929.89
2018-04-27T17:07:24.227Z,929.87
2018-04-27T17:07:37.259Z,929.9
2018-04-27T17:07:50.291Z,929.87
2018-04-27T17:08:03.310Z,929.83
2018-04-27T17:08:16.296Z,929.88
2018-04-27T17:08:28.394Z,929.88
2018-04-27T17:08:41.386Z,929.85
2018-04-27T17:08:54.389Z,929.87
2018-04-27T17:09:06.889Z,929.89
2018-04-27T17:09:18.986Z,929.85
2018-04-27T17:09:32.337Z,929.85
2018-04-27T17:09:44.524Z,929.84
2018-04-27T17:09:57.531Z,929.86
2018-04-27T17:10:09.591Z,929.82
2018-04-27T17:10:21.691Z,929.87
2018-04-27T17:10:33.803Z,929.82
2018-04-27T17:10:45.852Z,929.82
2018-04-27T17:10:58.432Z,929.81
2018-04-27T17:11:10.501Z,929.84
2018-04-27T17:11:23.544Z,929.85
2018-04-27T17:11:36.094Z,929.82
2018-04-27T17:11:48.688Z,929.84
2018-04-27T17:12:01.687Z,929.82
2018-04-27T17:12:14.281Z,929.79
2018-04-27T17:12:26.843Z,929.83
2018-04-27T17:12:39.914Z,929.81
2018-04-27T17:12:52.488Z,929.82
2018-04-27T17:13:05.473Z,929.8
2018-04-27T17:13:17.532Z,929.79
2018-04-27T17:13:30.162Z,929.8
2018-04-27T17:13:43.435Z,929.77
2018-04-27T17:13:55.964Z,929.76
2018-04-27T17:14:08.553Z,929.77
2018-04-27T17:14:21.576Z,929.75
2018-04-27T17:14:34.575Z,929.74
2018-04-27T17:14:47.121Z,929.76
2018-04-27T17:15:00.170Z,929.76
2018-04-27T17:15:13.212Z,929.78
2018-04-27T17:15:26.257Z,929.79
2018-04-27T17:15:38.358Z,929.79
2018-04-27T17:15:50.915Z,929.79
2018-04-27T17:16:04.010Z,929.8
2018-04-27T17:16:17.071Z,929.82
2018-04-27T17:16:29.659Z,929.78
2018-04-27T17:16:44.214Z,929.75
2018-04-27T17:16:56.752Z,929.76
2018-04-27T17:17:09.464Z,929.79
2018-04-27T17:17:21.554Z,929.77
2018-04-27T17:17:33.663Z,929.79
2018-04-27T17:17:46.669Z,929.78
2018-04-27T17:17:59.699Z,929.76
2018-04-27T17:18:11.323Z,929.77
2018-04-27T17:18:23.894Z,929.76
2018-04-27T17:18:36.928Z,929.77
2018-04-27T17:18:49.509Z,929.76
2018-04-27T17:19:02.557Z,929.76
2018-04-27T17:19:15.125Z,929.8
2018-04-27T17:19:28.517Z,929.75
2018-04-27T17:19:41.533Z,929.78
2018-04-27T17:19:54.547Z,929.78
2018-04-27T17:20:06.599Z,929.78
2018-04-27T17:20:19.106Z,929.74
2018-04-27T17:20:31.655Z,929.73
2018-04-27T17:20:44.662Z,929.74
2018-04-27T17:20:57.166Z,929.76
2018-04-27T17:21:10.205Z,929.68
2018-04-27T17:21:23.253Z,929.73
2018-04-27T17:21:35.823Z,929.7
2018-04-27T17:21:47.466Z,929.7
2018-04-27T17:22:00.010Z,929.68
2018-04-27T17:22:12.116Z,929.73
2018-04-27T17:22:24.208Z,929.72
2018-04-27T17:22:37.307Z,929.7
2018-04-27T17:22:50.033Z,929.66
2018-04-27T17:23:02.113Z,929.64
2018-04-27T17:23:14.634Z,929.66
2018-04-27T17:23:27.649Z,929.67
2018-04-27T17:23:40.223Z,929.69
2018-04-27T17:23:51.875Z,929.68
2018-04-27T17:24:04.429Z,929.67
2018-04-27T17:24:16.076Z,929.68
2018-04-27T17:24:28.144Z,929.66
2018-04-27T17:24:39.852Z,929.7
2018-04-27T17:24:52.887Z,929.66
2018-04-27T17:25:05.448Z,929.68
2018-04-27T17:25:18.007Z,929.67
2018-04-27T17:25:30.564Z,929.68
2018-04-27T17:25:42.188Z,929.66
2018-04-27T17:25:54.752Z,929.65
2018-04-27T17:26:07.804Z,929.7
2018-04-27T17:26:20.853Z,929.68
2018-04-27T17:26:34.028Z,929.68
2018-04-27T17:26:46.709Z,929.69
2018-04-27T17:26:59.258Z,929.68
2018-04-27T17:27:11.821Z,929.68
2018-04-27T17:27:24.402Z,929.64
2018-04-27T17:27:35.562Z,929.64
2018-04-27T17:27:48.555Z,929.59
2018-04-27T17:28:01.588Z,929.6
2018-04-27T17:28:13.710Z,929.64
2018-04-27T17:28:26.280Z,929.64
2018-04-27T17:28:39.879Z,929.66
2018-04-27T17:28:53.263Z,929.62
2018-04-27T17:29:05.914Z,929.64
2018-04-27T17:29:18.911Z,929.64
2018-04-27T17:29:31.972Z,929.65
2018-04-27T17:29:44.967Z,929.62
2018-04-27T17:29:58.005Z,929.63
2018-04-27T17:30:10.079Z,929.6
2018-04-27T17:30:23.117Z,929.6
2018-04-27T17:30:35.638Z,929.64
2018-04-27T17:30:48.208Z,929.63
2018-04-27T17:31:00.301Z,929.67
2018-04-27T17:31:12.841Z,929.65
2018-04-27T17:31:25.888Z,929.63
2018-04-27T17:31:38.457Z,929.63
2018-04-27T17:31:51.118Z,929.61
2018-04-27T17:32:03.701Z,929.62
2018-04-27T17:32:16.277Z,929.61
2018-04-27T17:32:28.818Z,929.6
2018-04-27T17:32:41.401Z,929.6
2018-04-27T17:32:54.408Z,929.59
2018-04-27T17:33:06.498Z,929.57
2018-04-27T17:33:19.050Z,929.59
2018-04-27T17:33:31.649Z,929.6
2018-04-27T17:33:44.221Z,929.57
2018-04-27T17:33:57.258Z,929.62
2018-04-27T17:34:09.822Z,929.59
2018-04-27T17:34:21.915Z,929.62
2018-04-27T17:34:34.500Z,929.59
2018-04-27T17:34:47.057Z,929.61
2018-04-27T17:34:59.722Z,929.59
2018-04-27T17:35:12.568Z,929.6
2018-04-27T17:35:25.521Z,929.6
2018-04-27T17:35:38.669Z,929.61
2018-04-27T17:35:50.765Z,929.6
2018-04-27T17:36:03.308Z,929.57
2018-04-27T17:36:15.870Z,929.63
2018-04-27T17:36:28.897Z,929.6
2018-04-27T17:36:40.558Z,929.63
2018-04-27T17:36:54.268Z,929.59
2018-04-27T17:37:06.729Z,929.6
2018-04-27T17:37:20.045Z,929.6
2018-04-27T17:37:32.123Z,929.6
2018-04-27T17:37:44.665Z,929.62
2018-04-27T17:37:57.219Z,929.61
2018-04-27T17:38:09.306Z,929.61
2018-04-27T17:38:21.842Z,929.62
2018-04-27T17:38:34.424Z,929.57
2018-04-27T17:38:46.977Z,929.61
2018-04-27T17:38:59.068Z,929.6
2018-04-27T17:39:12.079Z,929.61
2018-04-27T17:39:25.065Z,929.56
2018-04-27T17:39:38.065Z,929.57
2018-04-27T17:39:50.769Z,929.62
2018-04-27T17:40:03.869Z,929.62
2018-04-27T17:40:16.416Z,929.57
2018-04-27T17:40:28.653Z,929.61
2018-04-27T17:40:41.786Z,929.56
2018-04-27T17:40:53.898Z,929.58
2018-04-27T17:41:06.974Z,929.59
2018-04-27T17:41:19.543Z,929.57
2018-04-27T17:41:32.564Z,929.55
2018-04-27T17:41:45.623Z,929.53
2018-04-27T17:41:58.247Z,929.57
2018-04-27T17:42:10.842Z,929.53
2018-04-27T17:42:23.436Z,929.54
2018-04-27T17:42:36.513Z,929.52
2018-04-27T17:42:49.554Z,929.54
2018-04-27T17:43:02.580Z,929.52
2018-04-27T17:43:15.648Z,929.52
2018-04-27T17:43:28.876Z,929.49
2018-04-27T17:43:41.562Z,929.5
2018-04-27T17:43:54.559Z,929.48
2018-04-27T17:44:07.644Z,929.5
2018-04-27T17:44:19.359Z,929.48
2018-04-27T17:44:31.769Z,929.46
2018-04-27T17:44:44.847Z,929.5
2018-04-27T17:44:57.407Z,929.52
2018-04-27T17:45:10.398Z,929.49
2018-04-27T17:45:23.434Z,929.46
2018-04-27T17:45:36.005Z,929.5
2018-04-27T17:45:48.737Z,929.47
2018-04-27T17:46:01.942Z,929.47
2018-04-27T17:46:14.497Z,929.47
2018-04-27T17:46:27.045Z,929.46
2018-04-27T17:46:40.030Z,929.49
2018-04-27T17:46:52.080Z,929.49
2018-04-27T17:47:05.182Z,929.51
2018-04-27T17:47:17.280Z,929.5
2018-04-27T17:47:29.836Z,929.49
2018-04-27T17:47:42.416Z,929.49
2018-04-27T17:47:54.981Z,929.48
2018-04-27T17:48:07.711Z,929.46
2018-04-27T17:48:20.813Z,929.5
2018-04-27T17:48:33.845Z,929.45
2018-04-27T17:48:46.522Z,929.49
2018-04-27T17:48:59.714Z,929.48
2018-04-27T17:49:11.805Z,929.44
2018-04-27T17:49:23.854Z,929.46
2018-04-27T17:49:36.417Z,929.45
2018-04-27T17:49:48.975Z,929.47
2018-04-27T17:50:01.528Z,929.44
2018-04-27T17:50:14.558Z,929.44
2018-04-27T17:50:26.666Z,929.46
2018-04-27T17:50:39.226Z,929.44
2018-04-27T17:50:52.217Z,929.45
2018-04-27T17:51:04.804Z,929.47
2018-04-27T17:51:17.397Z,929.47
2018-04-27T17:51:30.445Z,929.47
2018-04-27T17:51:43.025Z,929.45
2018-04-27T17:51:54.656Z,929.47
2018-04-27T17:52:07.687Z,929.46
2018-04-27T17:52:20.248Z,929.46
2018-04-27T17:52:32.355Z,929.49
2018-04-27T17:52:44.927Z,929.43
2018-04-27T17:52:57.944Z,929.47
2018-04-27T17:53:10.971Z,929.44
2018-04-27T17:53:24.134Z,929.43
2018-04-27T17:53:37.046Z,929.44
2018-04-27T17:53:49.133Z,929.47
2018-04-27T17:54:01.723Z,929.45
2018-04-27T17:54:14.277Z,929.42
2018-04-27T17:54:26.815Z,929.44
2018-04-27T17:54:38.906Z,929.43
2018-04-27T17:54:51.942Z,929.39
2018-04-27T17:55:04.545Z,929.43
2018-04-27T17:55:17.554Z,929.42
2018-04-27T17:55:30.119Z,929.38
2018-04-27T17:55:42.834Z,929.44
2018-04-27T17:55:56.197Z,929.44
2018-04-27T17:56:08.261Z,929.39
2018-04-27T17:56:21.327Z,929.39
2018-04-27T17:56:33.904Z,929.4
2018-04-27T17:56:45.974Z,929.42
2018-04-27T17:56:58.550Z,929.42
2018-04-27T17:57:10.167Z,929.42
2018-04-27T17:57:23.205Z,929.41
2018-04-27T17:57:35.753Z,929.41
2018-04-27T17:57:48.739Z,929.45
2018-04-27T17:58:01.721Z,929.43
2018-04-27T17:58:14.284Z,929.43
2018-04-27T17:58:26.837Z,929.42
2018-04-27T17:58:39.404Z,929.42
2018-04-27T17:58:51.477Z,929.41
2018-04-27T17:59:03.550Z,929.44
2018-04-27T17:59:16.564Z,929.45
2018-04-27T17:59:30.169Z,929.46
2018-04-27T17:59:43.308Z,929.44
2018-04-27T17:59:55.843Z,929.43
2018-04-27T18:00:08.429Z,929.45
2018-04-27T18:00:20.519Z,929.43
2018-04-27T18:00:33.587Z,929.44
2018-04-27T18:00:46.131Z,929.42
2018-04-27T18:00:58.695Z,929.42
2018-04-27T18:01:10.784Z,929.42
2018-04-27T18:01:23.843Z,929.42
2018-04-27T18:01:35.932Z,929.44
2018-04-27T18:01:48.981Z,929.43
2018-04-27T18:02:02.285Z,929.45
2018-04-27T18:02:14.003Z,929.43
2018-04-27T18:02:27.011Z,929.44
2018-04-27T18:02:39.589Z,929.46
2018-04-27T18:02:52.648Z,929.45
2018-04-27T18:03:04.689Z,929.44
2018-04-27T18:03:16.768Z,929.46
2018-04-27T18:03:29.800Z,929.44
2018-04-27T18:03:42.839Z,929.45
2018-04-27T18:03:54.473Z,929.45
2018-04-27T18:04:07.037Z,929.49
2018-04-27T18:04:20.044Z,929.47
2018-04-27T18:04:33.063Z,929.43
2018-04-27T18:04:45.148Z,929.43
2018-04-27T18:04:58.169Z,929.43
2018-04-27T18:05:10.287Z,929.41
2018-04-27T18:05:22.832Z,929.42
2018-04-27T18:05:35.874Z,929.42
2018-04-27T18:05:48.429Z,929.46
2018-04-27T18:06:01.472Z,929.41
2018-04-27T18:06:13.556Z,929.42
2018-04-27T18:06:25.670Z,929.44
2018-04-27T18:06:38.233Z,929.44
2018-04-27T18:06:50.799Z,929.42
2018-04-27T18:07:03.356Z,929.4
2018-04-27T18:07:15.439Z,929.43
2018-04-27T18:07:28.102Z,929.42
2018-04-27T18:07:41.340Z,929.45
2018-04-27T18:07:54.325Z,929.41
2018-04-27T18:08:06.910Z,929.43
2018-04-27T18:08:19.002Z,929.41
2018-04-27T18:08:31.573Z,929.43
2018-04-27T18:08:44.579Z,929.42
2018-04-27T18:08:57.142Z,929.42
2018-04-27T18:09:09.238Z,929.4
2018-04-27T18:09:21.795Z,929.43
2018-04-27T18:09:34.366Z,929.45
2018-04-27T18:09:46.958Z,929.42
2018-04-27T18:09:59.481Z,929.4
2018-04-27T18:10:11.109Z,929.44
2018-04-27T18:10:23.643Z,929.42
2018-04-27T18:10:36.203Z,929.42
2018-04-27T18:10:49.204Z,929.41
2018-04-27T18:11:01.737Z,929.43
2018-04-27T18:11:13.367Z,929.39
2018-04-27T18:11:26.465Z,929.42
2018-04-27T18:11:39.411Z,929.41
2018-04-27T18:11:53.345Z,929.43
2018-04-27T18:12:07.287Z,929.39
2018-04-27T18:12:19.815Z,929.39
2018-04-27T18:12:32.375Z,929.38
2018-04-27T18:12:44.440Z,929.38
2018-04-27T18:12:57.675Z,929.41
2018-04-27T18:13:10.742Z,929.38
2018-04-27T18:13:22.807Z,929.4
2018-04-27T18:13:35.847Z,929.45
2018-04-27T18:13:48.415Z,929.45
2018-04-27T18:14:00.983Z,929.47
2018-04-27T18:14:14.045Z,929.43
2018-04-27T18:14:26.589Z,929.46
2018-04-27T18:14:39.670Z,929.44
2018-04-27T18:14:51.312Z,929.45
2018-04-27T18:15:03.864Z,929.45
2018-04-27T18:15:16.906Z,929.43
2018-04-27T18:15:29.480Z,929.4
2018-04-27T18:15:42.053Z,929.38
2018-04-27T18:15:54.594Z,929.44
2018-04-27T18:16:07.565Z,929.45
2018-04-27T18:16:20.552Z,929.4
2018-04-27T18:16:32.624Z,929.45
2018-04-27T18:16:44.988Z,929.41
2018-04-27T18:16:58.261Z,929.38
2018-04-27T18:17:11.409Z,929.4
2018-04-27T18:17:23.991Z,929.4
2018-04-27T18:17:37.044Z,929.34
2018-04-27T18:17:50.061Z,929.4
2018-04-27T18:18:02.104Z,929.42
2018-04-27T18:18:15.471Z,929.38
2018-04-27T18:18:26.998Z,929.38
2018-04-27T18:18:39.607Z,929.36
2018-04-27T18:18:52.618Z,929.36
2018-04-27T18:19:05.167Z,929.36
2018-04-27T18:19:17.267Z,929.38
2018-04-27T18:19:29.806Z,929.37
2018-04-27T18:19:42.346Z,929.38
2018-04-27T18:19:53.483Z,929.36
2018-04-27T18:20:05.992Z,929.32
2018-04-27T18:20:18.568Z,929.36
2018-04-27T18:20:31.556Z,929.33
2018-04-27T18:20:44.552Z,929.31
2018-04-27T18:20:56.650Z,929.33
2018-04-27T18:21:09.213Z,929.34
2018-04-27T18:21:21.329Z,929.34
2018-04-27T18:21:33.860Z,929.32
2018-04-27T18:21:46.866Z,929.33
2018-04-27T18:21:58.926Z,929.32
2018-04-27T18:22:11.931Z,929.33
2018-04-27T18:22:24.948Z,929.32
2018-04-27T18:22:38.001Z,929.33
2018-04-27T18:22:51.207Z,929.29
2018-04-27T18:23:04.445Z,929.32
2018-04-27T18:23:16.998Z,929.31
2018-04-27T18:23:29.055Z,929.3
2018-04-27T18:23:41.613Z,929.3
2018-04-27T18:23:54.626Z,929.29
2018-04-27T18:24:07.657Z,929.29
2018-04-27T18:24:20.215Z,929.28
2018-04-27T18:24:33.252Z,929.32
2018-04-27T18:24:45.349Z,929.29
2018-04-27T18:24:58.362Z,929.33
2018-04-27T18:25:10.953Z,929.33
2018-04-27T18:25:23.690Z,929.33
2018-04-27T18:25:36.591Z,929.34
2018-04-27T18:25:49.426Z,929.32
2018-04-27T18:26:02.439Z,929.33
2018-04-27T18:26:15.012Z,929.34
2018-04-27T18:26:27.585Z,929.31
2018-04-27T18:26:40.113Z,929.3
2018-04-27T18:26:53.187Z,929.33
2018-04-27T18:27:06.227Z,929.32
2018-04-27T18:27:19.281Z,929.34
2018-04-27T18:27:30.892Z,929.33
2018-04-27T18:27:43.630Z,929.35
2018-04-27T18:27:56.421Z,929.34
2018-04-27T18:28:08.984Z,929.35
2018-04-27T18:28:21.505Z,929.35
2018-04-27T18:28:34.126Z,929.25
2018-04-27T18:28:47.161Z,929.32
2018-04-27T18:28:59.762Z,929.32
2018-04-27T18:29:11.889Z,929.33
2018-04-27T18:29:24.956Z,929.35
2018-04-27T18:29:37.504Z,929.34
2018-04-27T18:29:50.146Z,929.34
2018-04-27T18:30:02.412Z,929.34
2018-04-27T18:30:14.044Z,929.34
2018-04-27T18:30:26.614Z,929.34
2018-04-27T18:30:38.692Z,929.33
2018-04-27T18:30:50.765Z,929.34
2018-04-27T18:31:03.332Z,929.33
2018-04-27T18:31:16.352Z,929.36
2018-04-27T18:31:29.371Z,929.34
2018-04-27T18:31:41.476Z,929.37
2018-04-27T18:31:54.516Z,929.37
2018-04-27T18:32:07.403Z,929.38
2018-04-27T18:32:19.515Z,929.36
2018-04-27T18:32:32.525Z,929.38
2018-04-27T18:32:45.570Z,929.37
2018-04-27T18:32:58.135Z,929.37
2018-04-27T18:33:11.170Z,929.35
2018-04-27T18:33:24.457Z,929.35
2018-04-27T18:33:37.588Z,929.34
2018-04-27T18:33:50.124Z,929.34
2018-04-27T18:34:02.713Z,929.34
2018-04-27T18:34:15.257Z,929.31
2018-04-27T18:34:28.297Z,929.37
2018-04-27T18:34:41.324Z,929.35
2018-04-27T18:34:54.348Z,929.36
2018-04-27T18:35:07.372Z,929.35
2018-04-27T18:35:19.015Z,929.36
2018-04-27T18:35:32.136Z,929.33
2018-04-27T18:35:45.473Z,929.37
2018-04-27T18:35:58.505Z,929.38
2018-04-27T18:36:11.043Z,929.4
2018-04-27T18:36:24.117Z,929.38
2018-04-27T18:36:36.666Z,929.35
2018-04-27T18:36:49.692Z,929.39
2018-04-27T18:37:02.728Z,929.38
2018-04-27T18:37:15.246Z,929.39
2018-04-27T18:37:28.264Z,929.4
2018-04-27T18:37:40.350Z,929.35
2018-04-27T18:37:52.472Z,929.38
2018-04-27T18:38:05.502Z,929.39
2018-04-27T18:38:18.552Z,929.42
2018-04-27T18:38:30.660Z,929.42
2018-04-27T18:38:43.190Z,929.4
2018-04-27T18:38:55.782Z,929.4
2018-04-27T18:39:08.328Z,929.39
2018-04-27T18:39:21.540Z,929.37
2018-04-27T18:39:33.815Z,929.4